Time;durP1;ratioP1;P1;durP2;ratioP2;P2;SDS_P1;SDS_P2;PMS_P1;PMS_P2;Temp;Humidity;BMP_temperature;BMP_pressure;BME280_temperature;BME280_humidity;BME280_pressure;Samples;Min_cycle;Max_cycle;Signal;HPM_P1;HPM_P2
2022/09/04 00:07:46;;;;;;;1999.90;999.90;;;16.90;99.90;;;;;;6733679;88;20317;-77
2022/09/04 00:18:04;;;;;;;1999.90;999.90;;;16.80;99.90;;;;;;6733606;88;20242;-77
2022/09/04 00:28:23;;;;;;;1999.90;999.90;;;16.80;99.90;;;;;;6734927;88;20186;-77
2022/09/04 00:38:44;;;;;;;1999.90;999.90;;;16.70;99.90;;;;;;6728713;88;20288;-77
2022/09/04 00:49:23;;;;;;;1999.90;999.90;;;16.70;99.90;;;;;;6731613;88;20227;-77
2022/09/04 00:59:54;;;;;;;1999.90;999.90;;;16.60;99.90;;;;;;6730382;88;20227;-77
2022/09/04 01:09:57;;;;;;;1999.90;999.90;;;16.70;99.90;;;;;;6734057;88;20257;-77
2022/09/04 01:20:05;;;;;;;1999.90;999.90;;;16.60;99.90;;;;;;6733234;88;20198;-76
2022/09/04 01:30:16;;;;;;;1999.90;999.90;;;16.60;99.90;;;;;;6730711;88;20221;-77
2022/09/04 01:40:38;;;;;;;1999.90;999.90;;;16.40;99.90;;;;;;6730695;88;20201;-76
2022/09/04 01:50:44;;;;;;;1999.90;999.90;;;16.40;99.90;;;;;;6724976;88;20699;-77
2022/09/04 02:00:55;;;;;;;1999.90;999.90;;;16.30;99.90;;;;;;6728147;88;20236;-76
2022/09/04 02:11:09;;;;;;;1999.90;999.90;;;16.20;99.90;;;;;;6732410;88;20983;-77
2022/09/04 02:21:23;;;;;;;1999.90;999.90;;;16.20;99.90;;;;;;6732867;88;20662;-76
2022/09/04 02:31:47;;;;;;;1999.90;999.90;;;16.20;99.90;;;;;;6728793;88;20229;-76
2022/09/04 02:52:00;;;;;;;1999.90;999.90;;;16.10;99.90;;;;;;6731859;88;20189;-77
2022/09/04 03:02:03;;;;;;;1999.90;999.90;;;16.10;99.90;;;;;;6732978;88;20264;-76
2022/09/04 03:12:25;;;;;;;1999.90;999.90;;;16.00;99.90;;;;;;6737946;88;20659;-76
2022/09/04 03:22:32;;;;;;;1999.90;999.90;;;16.00;99.90;;;;;;6727113;88;20389;-76
2022/09/04 03:33:11;;;;;;;1999.90;999.90;;;16.00;99.90;;;;;;6728164;88;20652;-78
2022/09/04 03:43:41;;;;;;;1999.90;999.90;;;15.90;99.90;;;;;;6736954;88;20277;-76
2022/09/04 03:54:28;;;;;;;1999.90;999.90;;;16.00;99.90;;;;;;6728410;88;20203;-76
2022/09/04 04:04:55;;;;;;;1999.90;999.90;;;16.00;99.90;;;;;;6727945;88;20352;-77
2022/09/04 04:15:15;;;;;;;1999.90;999.90;;;15.90;99.90;;;;;;6737206;88;20178;-77
2022/09/04 04:25:47;;;;;;;1999.90;999.90;;;15.80;99.90;;;;;;6727109;88;20240;-77
2022/09/04 04:35:55;;;;;;;1999.90;999.90;;;15.80;99.90;;;;;;6732512;88;20350;-77
2022/09/04 04:46:05;;;;;;;1999.90;999.90;;;15.80;99.90;;;;;;6738315;88;20651;-76
2022/09/04 04:56:33;;;;;;;1999.90;999.90;;;15.70;99.90;;;;;;6748912;87;20305;-77
2022/09/04 05:07:06;;;;;;;1999.90;999.90;;;15.80;99.90;;;;;;6743304;87;20199;-77
2022/09/04 05:17:18;;;;;;;1999.90;999.90;;;15.80;99.90;;;;;;6737437;88;20210;-77
2022/09/04 05:27:19;;;;;;;1999.90;999.90;;;15.80;99.90;;;;;;6747656;87;20189;-79
2022/09/04 05:37:33;;;;;;;1999.90;999.90;;;15.70;99.90;;;;;;6746334;87;20733;-77
2022/09/04 05:47:49;;;;;;;1999.90;999.90;;;15.70;99.90;;;;;;6751171;87;20200;-78
2022/09/04 05:58:22;;;;;;;1999.90;999.90;;;15.90;99.90;;;;;;6750304;88;20165;-79
2022/09/04 06:08:57;;;;;;;1999.90;999.90;;;15.90;99.90;;;;;;6752252;88;20189;-79
2022/09/04 06:19:20;;;;;;;1999.90;999.90;;;16.10;99.90;;;;;;6751782;88;20330;-78
2022/09/04 06:29:35;;;;;;;1999.90;999.90;;;16.20;99.90;;;;;;6748926;87;20218;-78
2022/09/04 06:39:44;;;;;;;1999.90;999.90;;;16.60;99.90;;;;;;6751377;87;20608;-77
2022/09/04 06:50:01;;;;;;;1999.90;999.90;;;17.00;99.90;;;;;;6746414;87;20240;-78
2022/09/04 07:00:10;;;;;;;1999.90;999.90;;;17.20;99.90;;;;;;6745268;88;20282;-78
2022/09/04 07:10:17;;;;;;;1999.90;999.90;;;17.80;99.90;;;;;;6745183;88;20181;-77
2022/09/04 07:20:42;;;;;;;1999.90;999.90;;;17.90;99.90;;;;;;6765318;88;20257;-78
2022/09/04 07:31:02;;;;;;;1999.90;999.90;;;18.60;99.90;;;;;;6762248;88;20213;-78
2022/09/04 07:41:38;;;;;;;1999.90;999.90;;;19.00;99.90;;;;;;6748955;88;20280;-78
2022/09/04 07:51:52;;;;;;;1999.90;999.90;;;19.00;99.90;;;;;;6750864;88;20248;-78
2022/09/04 08:02:06;;;;;;;1999.90;999.90;;;19.30;99.90;;;;;;6746197;88;20202;-77
2022/09/04 08:12:20;;;;;;;1999.90;999.90;;;19.80;99.90;;;;;;6750389;88;20238;-77
2022/09/04 08:23:06;;;;;;;1999.90;999.90;;;20.50;99.90;;;;;;6745744;88;20274;-78
2022/09/04 08:33:15;;;;;;;1999.90;999.90;;;21.20;99.90;;;;;;6750466;87;20705;-77
2022/09/04 08:53:38;;;;;;;1999.90;999.90;;;22.00;99.90;;;;;;6654376;88;20213;-81
2022/09/04 09:04:10;;;;;;;1999.90;999.90;;;22.10;99.90;;;;;;6642060;89;20271;-82
2022/09/04 09:14:42;;;;;;;1999.90;999.90;;;22.50;99.90;;;;;;6634261;89;20569;-80
2022/09/04 09:25:08;;;;;;;1999.90;999.90;;;22.80;99.90;;;;;;6631179;88;20221;-80
2022/09/04 09:35:28;;;;;;;1999.90;999.90;;;23.60;99.90;;;;;;6634720;88;20213;-80
2022/09/04 09:55:51;;;;;;;1999.90;999.90;;;24.70;99.90;;;;;;6679996;88;20387;-80
2022/09/04 10:06:11;;;;;;;1999.90;999.90;;;25.40;99.90;;;;;;6649876;89;20308;-80
2022/09/04 10:16:29;;;;;;;1999.90;999.90;;;25.50;99.90;;;;;;6659112;89;20216;-82
2022/09/04 10:26:41;;;;;;;1999.90;999.90;;;25.60;99.90;;;;;;6658873;89;20289;-82
2022/09/04 10:37:05;;;;;;;;;;;26.40;99.90;;;;;;6666219;89;20244;-80
2022/09/04 10:47:51;;;;;;;1999.90;999.90;;;26.90;99.90;;;;;;6668028;88;20051;-80
2022/09/04 10:57:58;;;;;;;1999.90;999.90;;;27.70;99.90;;;;;;6677650;88;20215;-80
2022/09/04 11:08:34;;;;;;;1999.90;999.90;;;27.90;99.90;;;;;;6677699;88;20185;-79
2022/09/04 11:18:50;;;;;;;1999.90;999.90;;;27.80;99.90;;;;;;6682269;88;20196;-80
2022/09/04 11:29:11;;;;;;;1999.90;999.90;;;28.80;99.90;;;;;;6660278;88;20188;-78
2022/09/04 11:39:37;;;;;;;1999.90;999.90;;;28.90;99.90;;;;;;6695067;88;20654;-79
2022/09/04 11:50:11;;;;;;;1999.90;999.90;;;30.40;99.90;;;;;;6683521;89;20288;-80
2022/09/04 12:00:16;;;;;;;1999.90;999.90;;;29.90;98.90;;;;;;6674852;89;20231;-78
2022/09/04 12:10:51;;;;;;;1999.90;999.90;;;29.60;99.90;;;;;;6671966;89;20180;-79
2022/09/04 12:21:39;;;;;;;1999.90;999.90;;;30.50;98.60;;;;;;6656590;88;20245;-75
2022/09/04 12:31:50;;;;;;;1999.90;999.90;;;29.10;99.90;;;;;;6653958;88;20333;-75
2022/09/04 12:41:57;;;;;;;1999.90;999.90;;;29.10;99.00;;;;;;6658808;88;20651;-77
2022/09/04 12:52:22;;;;;;;1999.90;999.90;;;29.20;99.10;;;;;;6656578;88;20677;-76
2022/09/04 13:02:35;;;;;;;1999.90;999.90;;;28.80;99.10;;;;;;6656313;88;20617;-76
2022/09/04 13:12:38;;;;;;;1999.90;999.90;;;29.40;98.10;;;;;;6666894;88;20265;-77
2022/09/04 13:23:02;;;;;;;1999.90;999.90;;;30.90;97.00;;;;;;6662243;88;20273;-76
2022/09/04 13:33:14;;;;;;;1999.90;999.90;;;31.00;95.90;;;;;;6668192;88;20599;-76
2022/09/04 13:43:42;;;;;;;1999.90;999.90;;;30.30;96.10;;;;;;6659480;88;20314;-76
2022/09/04 13:54:05;;;;;;;1999.90;999.90;;;29.60;96.00;;;;;;6663744;88;20231;-76
2022/09/04 14:04:10;;;;;;;1999.90;999.90;;;30.50;95.70;;;;;;6669077;88;20300;-77
2022/09/04 14:14:44;;;;;;;1999.90;999.90;;;30.30;96.20;;;;;;6659500;88;20678;-77
2022/09/04 14:25:11;;;;;;;1999.90;999.90;;;30.50;95.50;;;;;;6675861;88;20191;-78
2022/09/04 14:35:35;;;;;;;1999.90;999.90;;;32.80;93.80;;;;;;6676520;88;20322;-81
2022/09/04 14:46:11;;;;;;;1999.90;999.90;;;32.00;93.30;;;;;;6660422;77;20714;-79
2022/09/04 14:56:11;;;;;;;1999.90;999.90;;;31.00;93.60;;;;;;6671039;88;20203;-78
2022/09/04 15:06:17;;;;;;;1999.90;999.90;;;30.40;94.80;;;;;;6670125;88;20207;-77
2022/09/04 15:16:28;;;;;;;1999.90;999.90;;;30.50;93.90;;;;;;6678647;88;20311;-78
2022/09/04 15:26:49;;;;;;;1999.90;999.90;;;29.50;95.50;;;;;;6689012;88;20244;-78
2022/09/04 15:36:50;;;;;;;1999.90;999.90;;;28.70;95.00;;;;;;6682809;88;20258;-78
2022/09/04 15:47:15;;;;;;;1999.90;999.90;;;28.60;96.00;;;;;;6676813;88;20237;-79
2022/09/04 15:57:35;;;;;;;1999.90;999.90;;;29.00;95.70;;;;;;6678142;88;20215;-82
2022/09/04 16:07:53;;;;;;;1999.90;999.90;;;29.10;95.70;;;;;;6679056;88;20222;-78
2022/09/04 16:17:55;;;;;;;1999.90;999.90;;;28.00;96.40;;;;;;6670516;89;20197;-80
2022/09/04 16:28:18;;;;;;;1999.90;999.90;;;28.00;96.80;;;;;;6667793;88;20189;-78
2022/09/04 16:38:25;;;;;;;1999.90;999.90;;;28.30;95.70;;;;;;6730835;88;20315;-79
2022/09/04 16:48:31;;;;;;;1999.90;999.90;;;28.20;95.70;;;;;;6675773;88;20204;-79
2022/09/04 16:58:42;;;;;;;1999.90;999.90;;;28.20;95.80;;;;;;6707495;88;20216;-78
2022/09/04 17:08:55;;;;;;;1999.90;999.90;;;28.00;95.90;;;;;;6675767;88;20202;-77
2022/09/04 17:18:55;;;;;;;1999.90;999.90;;;27.70;96.50;;;;;;6695540;88;20722;-78
2022/09/04 17:29:02;;;;;;;1999.90;999.90;;;27.10;98.10;;;;;;6748639;88;20217;-78
2022/09/04 17:39:14;;;;;;;1999.90;999.90;;;26.90;99.00;;;;;;6747680;88;21007;-76
2022/09/04 17:49:21;;;;;;;1999.90;999.90;;;26.80;99.30;;;;;;6751109;87;20208;-77
2022/09/04 17:59:32;;;;;;;1999.90;999.90;;;26.20;99.30;;;;;;6646106;89;20235;-79
2022/09/04 18:09:40;;;;;;;1999.90;999.90;;;25.60;99.90;;;;;;6642947;88;20176;-78
2022/09/04 18:19:46;;;;;;;1999.90;999.90;;;25.20;99.90;;;;;;6647345;89;20681;-78
2022/09/04 18:30:14;;;;;;;1999.90;999.90;;;24.90;99.90;;;;;;6666007;88;20242;-77
2022/09/04 18:40:24;;;;;;;1999.90;999.90;;;24.50;99.90;;;;;;6675205;88;20209;-78
2022/09/04 18:50:43;;;;;;;1999.90;999.90;;;24.20;99.90;;;;;;6679453;88;20653;-77
2022/09/04 19:01:07;;;;;;;1999.90;999.90;;;23.70;99.90;;;;;;6667194;88;20192;-79
2022/09/04 19:11:15;;;;;;;1999.90;999.90;;;23.30;99.90;;;;;;6651922;89;20274;-81
2022/09/04 19:21:44;;;;;;;1999.90;999.90;;;23.00;99.90;;;;;;6652012;89;20351;-79
2022/09/04 19:32:04;;;;;;;1999.90;999.90;;;22.80;99.90;;;;;;6653883;89;20257;-78
2022/09/04 19:42:15;;;;;;;1999.90;999.90;;;22.70;99.90;;;;;;6763413;88;20209;-81
2022/09/04 19:52:22;;;;;;;1999.90;999.90;;;22.50;99.90;;;;;;6663324;89;20773;-79
2022/09/04 20:02:36;;;;;;;1999.90;999.90;;;22.10;99.90;;;;;;6654777;89;20185;-79
2022/09/04 20:12:46;;;;;;;1999.90;999.90;;;22.00;99.90;;;;;;6655845;89;20305;-78
2022/09/04 20:22:49;;;;;;;1999.90;999.90;;;21.70;99.90;;;;;;6670992;88;20205;-79
2022/09/04 20:33:16;;;;;;;1999.90;999.90;;;21.60;99.90;;;;;;6685392;88;20189;-78
2022/09/04 20:43:46;;;;;;;1999.90;999.90;;;21.60;99.90;;;;;;6698614;88;21100;-80
2022/09/04 20:54:19;;;;;;;1999.90;999.90;;;21.20;99.90;;;;;;6688844;88;20250;-79
2022/09/04 21:04:25;;;;;;;1999.90;999.90;;;20.90;99.90;;;;;;6672083;89;20346;-80
2022/09/04 21:14:37;;;;;;;1999.90;999.90;;;20.80;99.90;;;;;;6669943;77;20585;-75
2022/09/04 21:24:52;;;;;;;1999.90;999.90;;;20.60;99.90;;;;;;6737030;88;20195;-75
2022/09/04 21:35:20;;;;;;;1999.90;999.90;;;20.30;99.90;;;;;;6735679;88;20196;-76
2022/09/04 21:45:39;;;;;;;1999.90;999.90;;;20.20;99.90;;;;;;6731281;88;20193;-76
2022/09/04 21:55:49;;;;;;;1999.90;999.90;;;20.10;99.90;;;;;;6732567;88;20291;-75
2022/09/04 22:06:26;;;;;;;1999.90;999.90;;;20.10;99.90;;;;;;6727864;88;20651;-76
2022/09/04 22:17:01;;;;;;;1999.90;999.90;;;19.90;99.90;;;;;;6728952;88;20900;-75
2022/09/04 22:27:42;;;;;;;1999.90;999.90;;;19.70;99.90;;;;;;6730527;88;20615;-76
2022/09/04 22:38:04;;;;;;;1999.90;999.90;;;19.60;99.90;;;;;;6727942;88;20199;-76
2022/09/04 22:48:25;;;;;;;1999.90;999.90;;;19.30;99.90;;;;;;6730437;88;20253;-76
2022/09/04 22:58:50;;;;;;;1999.90;999.90;;;19.20;99.90;;;;;;6730564;88;20856;-75
2022/09/04 23:09:07;;;;;;;1999.90;999.90;;;19.30;99.90;;;;;;6733370;88;20225;-75
2022/09/04 23:19:34;;;;;;;1999.90;999.90;;;19.40;99.90;;;;;;6729764;88;20226;-75
2022/09/04 23:30:01;;;;;;;1999.90;999.90;;;19.40;99.90;;;;;;6727901;88;20199;-75
2022/09/04 23:40:26;;;;;;;1999.90;999.90;;;19.40;99.90;;;;;;6729463;88;20201;-76
2022/09/04 23:50:52;;;;;;;1999.90;999.90;;;19.30;99.90;;;;;;6731310;88;20204;-76
